KBYI/BYI METAR and TAF weather

Enter ICAO airport designator
Station Type Date Time Source
KBYI METAR 2018/07/19 06:53 UTC NOAA

KBYI 190653Z AUTO 21004KT 10SM CLR 18/08 A3006 RMK AO2 SLP129 T01780083 403610111


Station Type Date Time Source
KBYI Decoded METAR 2018/07/19 06:53 UTC NOAA

BURLEY MUNICIPAL AIRPORT, ID, United States (KBYI) 42-33N 113-46W 1264M
Jul 19, 2018 - 02:53 AM EDT / 2018.07.19 0653 UTC
Wind: from the SSW (210 degrees) at 5 MPH (4 KT):0
Visibility: 10 mile(s):0
Sky conditions: clear
Temperature: 64.0 F (17.8 C)
Dew Point: 46.9 F (8.3 C)
Relative Humidity: 53%
Pressure (altimeter): 30.06 in. Hg (1017 hPa)
ob: KBYI 190653Z AUTO 21004KT 10SM CLR 18/08 A3006 RMK AO2 SLP129 T01780083 403610111
cycle: 7

Station Type Date Time Source
KBYI TAF 2018/07/19 06:22 UTC NOAA

TAF KBYI 190520Z 1906/2006 24007KT P6SM FEW100
FM191800 28009KT P6SM SKC


Example: see airport list